createdAt,value
2023-08-12T00:01:51.603Z,2.67
2023-08-12T00:04:19.210Z,3.25
2023-08-12T00:06:47.755Z,2.97
2023-08-12T00:09:16.464Z,3.13
2023-08-12T00:11:44.058Z,3.17
2023-08-12T00:14:12.264Z,6.70
2023-08-12T00:16:39.911Z,2.80
2023-08-12T00:19:09.879Z,2.88
2023-08-12T00:21:38.007Z,3.00
2023-08-12T00:24:06.105Z,2.92
2023-08-12T00:26:33.680Z,2.80
2023-08-12T00:29:01.421Z,2.90
2023-08-12T00:31:29.219Z,3.00
2023-08-12T00:33:57.431Z,2.90
2023-08-12T00:36:25.403Z,2.90
2023-08-12T00:38:53.063Z,2.80
2023-08-12T00:41:20.642Z,3.22
2023-08-12T00:43:48.290Z,3.10
2023-08-12T00:46:16.283Z,3.17
2023-08-12T00:48:43.982Z,3.33
2023-08-12T00:51:11.716Z,3.17
2023-08-12T00:53:40.756Z,2.92
2023-08-12T00:56:09.019Z,2.90
2023-08-12T00:58:36.721Z,3.25
2023-08-12T01:01:05.172Z,3.13
2023-08-12T01:03:33.053Z,42.45
2023-08-12T01:06:01.282Z,95.60
2023-08-12T01:08:32.112Z,112.15
2023-08-12T01:11:27.232Z,130.93
2023-08-12T01:14:18.970Z,12.15
2023-08-12T01:16:50.909Z,4.00
2023-08-12T01:19:37.849Z,37.55
2023-08-12T01:22:10.346Z,30.88
2023-08-12T01:24:41.140Z,3.60
2023-08-12T01:27:10.858Z,2.70
2023-08-12T01:29:42.448Z,2.60
2023-08-12T01:32:20.817Z,489.48
2023-08-12T01:35:07.862Z,373.70
2023-08-12T01:37:37.980Z,37.90
2023-08-12T01:40:07.607Z,7.28
2023-08-12T01:42:35.674Z,3.57
2023-08-12T01:45:04.096Z,3.20
2023-08-12T01:47:32.209Z,2.60
2023-08-12T01:50:00.111Z,3.90
2023-08-12T01:52:28.759Z,5.28
2023-08-12T01:54:56.620Z,2.90
2023-08-12T01:57:24.201Z,4.45
2023-08-12T01:59:53.274Z,15.73
2023-08-12T02:02:21.014Z,8.93
2023-08-12T02:04:48.659Z,10.95
2023-08-12T02:07:16.344Z,4.90
2023-08-12T02:09:44.322Z,8.38
2023-08-12T02:12:12.582Z,8.52
2023-08-12T02:14:40.242Z,15.52
2023-08-12T02:17:08.378Z,18.58
2023-08-12T02:19:37.431Z,24.33
2023-08-12T02:22:06.072Z,30.50
2023-08-12T02:24:34.179Z,12.00
2023-08-12T02:27:02.251Z,6.23
2023-08-12T02:29:29.855Z,16.27
2023-08-12T02:31:57.955Z,6.90
2023-08-12T02:34:25.615Z,16.73
2023-08-12T02:36:53.194Z,19.73
2023-08-12T02:39:20.878Z,25.10
2023-08-12T02:41:48.876Z,23.60
2023-08-12T02:44:16.982Z,34.20
2023-08-12T02:46:44.754Z,69.15
2023-08-12T02:49:12.896Z,86.75
2023-08-12T02:51:40.551Z,58.60
2023-08-12T02:54:08.593Z,50.33
2023-08-12T02:56:36.436Z,41.45
2023-08-12T02:59:04.625Z,73.85
2023-08-12T03:01:32.322Z,71.32
2023-08-12T03:04:00.597Z,116.43
2023-08-12T03:06:28.489Z,134.40
2023-08-12T03:08:56.879Z,77.15
2023-08-12T03:11:24.763Z,68.70
2023-08-12T03:13:53.152Z,244.73
2023-08-12T03:16:21.273Z,313.08
2023-08-12T03:18:49.005Z,326.42
2023-08-12T03:21:17.434Z,233.07
2023-08-12T03:23:45.825Z,55.95
2023-08-12T03:26:15.460Z,5.10
2023-08-12T03:28:43.451Z,7.47
2023-08-12T03:31:15.002Z,9.73
2023-08-12T03:33:43.691Z,3.83
2023-08-12T03:36:11.335Z,5.20
2023-08-12T03:38:39.104Z,4.93
2023-08-12T03:41:09.553Z,9.37
2023-08-12T03:43:38.904Z,44.90
2023-08-12T03:46:07.914Z,119.87
2023-08-12T03:48:35.613Z,3.15
2023-08-12T03:51:03.710Z,3.50
2023-08-12T03:53:31.486Z,4.20
2023-08-12T03:55:59.573Z,3.30
2023-08-12T03:58:28.490Z,3.60
2023-08-12T04:00:56.449Z,4.05
2023-08-12T04:03:24.443Z,3.53
2023-08-12T04:05:53.715Z,3.72
2023-08-12T04:08:24.449Z,4.90
2023-08-12T04:10:53.213Z,4.85
2023-08-12T04:13:20.839Z,32.15
2023-08-12T04:15:52.300Z,5.05
2023-08-12T04:18:20.958Z,13.80
2023-08-12T04:20:50.306Z,47.28
2023-08-12T04:23:19.140Z,6.10
2023-08-12T04:25:48.680Z,57.00
2023-08-12T04:28:17.773Z,12.20
2023-08-12T04:30:48.642Z,63.80
2023-08-12T04:33:18.275Z,25.07
2023-08-12T04:35:47.411Z,11.80
2023-08-12T04:38:17.196Z,8.23
2023-08-12T04:40:45.544Z,7.22
2023-08-12T04:43:14.741Z,4.55
2023-08-12T04:45:47.089Z,4.45
2023-08-12T04:48:15.936Z,8.17
2023-08-12T04:50:44.399Z,7.47
2023-08-12T04:53:12.499Z,8.13
2023-08-12T04:55:41.105Z,18.92
2023-08-12T04:58:09.718Z,5.78
2023-08-12T05:00:38.421Z,39.03
2023-08-12T05:03:06.109Z,6.90
2023-08-12T05:05:33.772Z,6.53
2023-08-12T05:08:01.953Z,5.13
2023-08-12T05:10:29.843Z,4.80
2023-08-12T05:12:59.467Z,81.93
2023-08-12T05:15:27.788Z,8.73
2023-08-12T05:17:56.539Z,64.82
2023-08-12T05:20:25.082Z,27.67
2023-08-12T05:22:53.212Z,20.40
2023-08-12T05:25:20.827Z,4.20
2023-08-12T05:27:48.435Z,273.25
2023-08-12T05:30:16.054Z,8.20
2023-08-12T05:32:44.502Z,4.95
2023-08-12T05:35:12.662Z,6.32
2023-08-12T05:37:40.814Z,3.40
2023-08-12T05:40:10.694Z,4.53
2023-08-12T05:42:38.319Z,4.05
2023-08-12T05:45:08.580Z,3.47
2023-08-12T05:47:36.658Z,3.47
2023-08-12T05:50:05.112Z,4.03
2023-08-12T05:52:32.823Z,3.45
2023-08-12T05:55:00.829Z,4.00
2023-08-12T05:57:29.821Z,3.40
2023-08-12T05:59:58.017Z,3.58
2023-08-12T06:02:26.870Z,3.72
2023-08-12T06:04:54.570Z,3.70
2023-08-12T06:07:22.434Z,3.07
2023-08-12T06:09:51.954Z,3.42
2023-08-12T06:12:19.605Z,3.42
2023-08-12T06:14:47.431Z,3.15
2023-08-12T06:17:14.955Z,3.20
2023-08-12T06:19:43.005Z,3.63
2023-08-12T06:22:11.175Z,3.42
2023-08-12T06:24:39.501Z,3.88
2023-08-12T06:27:07.196Z,3.42
2023-08-12T06:29:34.805Z,3.72
2023-08-12T06:32:02.379Z,3.20
2023-08-12T06:34:29.941Z,3.47
2023-08-12T06:36:57.644Z,2.90
2023-08-12T06:39:26.125Z,3.05
2023-08-12T06:41:54.170Z,3.37
2023-08-12T06:44:21.874Z,3.20
2023-08-12T06:46:49.467Z,3.25
2023-08-12T06:49:17.677Z,3.58
2023-08-12T06:51:45.215Z,3.28
2023-08-12T06:54:13.258Z,3.40
2023-08-12T06:56:40.868Z,3.28
2023-08-12T06:59:08.829Z,3.13
2023-08-12T07:01:36.456Z,3.67
2023-08-12T07:04:04.567Z,3.50
2023-08-12T07:06:32.221Z,3.50
2023-08-12T07:08:59.912Z,3.22
2023-08-12T07:11:27.495Z,3.53
2023-08-12T07:13:55.485Z,3.17
2023-08-12T07:16:23.059Z,2.90
2023-08-12T07:18:51.011Z,3.13
2023-08-12T07:21:18.995Z,3.95
2023-08-12T07:23:58.477Z,3.13
2023-08-12T07:26:31.617Z,3.17
2023-08-12T07:28:59.225Z,2.97
2023-08-12T07:31:27.351Z,2.88
2023-08-12T07:33:55.115Z,3.08
2023-08-12T07:36:23.554Z,2.90
2023-08-12T07:38:51.181Z,2.83
2023-08-12T07:41:19.274Z,2.60
2023-08-12T07:43:46.891Z,2.67
2023-08-12T07:46:14.888Z,2.63
2023-08-12T07:48:42.451Z,3.10
2023-08-12T07:51:10.463Z,3.10
2023-08-12T07:53:38.433Z,2.63
2023-08-12T07:56:06.128Z,2.78
2023-08-12T07:58:34.087Z,2.33
2023-08-12T08:01:01.623Z,2.50
2023-08-12T08:03:29.420Z,3.28
2023-08-12T08:05:57.466Z,2.17
2023-08-12T08:08:25.481Z,2.95
2023-08-12T08:10:53.097Z,2.60
2023-08-12T08:13:20.626Z,2.70
2023-08-12T08:15:48.465Z,2.17
2023-08-12T08:18:16.114Z,1.90
2023-08-12T08:20:45.903Z,3.20
2023-08-12T08:23:14.166Z,3.30
2023-08-12T08:25:42.397Z,2.95
2023-08-12T08:28:10.385Z,2.70
2023-08-12T08:30:38.185Z,1.90
2023-08-12T08:33:06.598Z,2.10
2023-08-12T08:35:34.255Z,2.17
2023-08-12T08:38:01.926Z,2.83
2023-08-12T08:40:29.567Z,2.22
2023-08-12T08:43:01.979Z,2.00
2023-08-12T08:45:33.103Z,2.20
2023-08-12T08:48:02.777Z,2.47
2023-08-12T08:50:32.458Z,2.47
2023-08-12T08:53:04.167Z,2.20
2023-08-12T08:55:32.235Z,2.50
2023-08-12T08:58:05.486Z,2.30
2023-08-12T09:00:33.739Z,2.58
2023-08-12T09:03:03.752Z,2.30
2023-08-12T09:05:33.262Z,2.58
2023-08-12T09:08:02.925Z,2.63
2023-08-12T09:10:31.664Z,2.78
2023-08-12T09:13:00.053Z,2.65
2023-08-12T09:15:27.729Z,2.60
2023-08-12T09:17:55.458Z,2.55
2023-08-12T09:20:23.534Z,2.45
2023-08-12T09:23:01.588Z,2.78
2023-08-12T09:25:31.209Z,2.90
2023-08-12T09:28:02.940Z,3.10
2023-08-12T09:30:32.478Z,2.83
2023-08-12T09:33:05.249Z,3.40
2023-08-12T09:35:36.088Z,3.50
2023-08-12T09:38:06.507Z,3.20
2023-08-12T09:40:37.625Z,2.95
2023-08-12T09:43:05.402Z,3.30
2023-08-12T09:45:35.033Z,3.07
2023-08-12T09:48:03.748Z,3.10
2023-08-12T09:50:31.860Z,3.50
2023-08-12T09:53:02.212Z,3.22
2023-08-12T09:55:32.884Z,2.80
2023-08-12T09:58:01.336Z,3.20
2023-08-12T10:00:29.113Z,3.85
2023-08-12T10:02:56.964Z,2.70
2023-08-12T10:05:28.370Z,2.55
2023-08-12T10:07:56.693Z,2.97
2023-08-12T10:10:24.318Z,2.53
2023-08-12T10:12:52.846Z,2.75
2023-08-12T10:15:21.064Z,2.50
2023-08-12T10:17:49.984Z,2.67
2023-08-12T10:20:24.029Z,2.47
2023-08-12T10:22:52.769Z,2.50
2023-08-12T10:25:23.772Z,2.50
2023-08-12T10:27:51.431Z,2.50
2023-08-12T10:30:21.447Z,2.28
2023-08-12T10:32:49.254Z,2.40
2023-08-12T10:35:17.084Z,2.30
2023-08-12T10:37:50.749Z,2.60
2023-08-12T10:40:23.481Z,2.60
2023-08-12T10:42:51.890Z,2.13
2023-08-12T10:45:20.061Z,2.22
2023-08-12T10:48:16.533Z,2.30
2023-08-12T10:50:50.531Z,2.10
2023-08-12T10:53:30.793Z,2.38
2023-08-12T10:56:01.459Z,2.40
2023-08-12T10:58:37.224Z,2.43
2023-08-12T11:01:15.415Z,2.70
2023-08-12T11:03:44.530Z,2.20
2023-08-12T11:06:12.833Z,2.00
2023-08-12T11:08:54.674Z,2.33
2023-08-12T11:11:24.985Z,2.38
2023-08-12T11:13:57.918Z,2.30
2023-08-12T11:16:39.186Z,2.40
2023-08-12T11:19:09.329Z,2.63
2023-08-12T11:21:37.823Z,2.30
2023-08-12T11:24:05.939Z,2.80
2023-08-12T11:26:33.701Z,2.40
2023-08-12T11:29:01.457Z,2.72
2023-08-12T11:31:29.558Z,2.75
2023-08-12T11:33:57.768Z,2.40
2023-08-12T11:36:25.474Z,2.75
2023-08-12T11:38:53.134Z,2.22
2023-08-12T11:41:24.020Z,2.63
2023-08-12T11:43:51.643Z,2.15
2023-08-12T11:46:19.490Z,2.80
2023-08-12T11:48:48.378Z,2.35
2023-08-12T11:51:17.235Z,1.98
2023-08-12T11:53:45.031Z,2.80
2023-08-12T11:56:12.702Z,2.95
2023-08-12T11:58:52.384Z,2.90
2023-08-12T12:01:25.926Z,2.42
2023-08-12T12:03:54.280Z,2.95
2023-08-12T12:06:38.580Z,2.50
2023-08-12T12:09:11.445Z,2.92
2023-08-12T12:11:40.099Z,2.47
2023-08-12T12:14:09.758Z,2.42
2023-08-12T12:16:45.447Z,2.10
2023-08-12T12:19:21.776Z,2.22
2023-08-12T12:21:54.395Z,2.40
2023-08-12T12:24:22.790Z,2.20
2023-08-12T12:26:50.600Z,2.20
2023-08-12T12:29:18.642Z,2.17
2023-08-12T12:31:46.660Z,2.08
2023-08-12T12:34:15.550Z,2.20
2023-08-12T12:36:43.316Z,2.00
2023-08-12T12:39:10.918Z,2.35
2023-08-12T12:41:38.561Z,2.10
2023-08-12T12:44:07.080Z,2.25
2023-08-12T12:46:34.950Z,2.05
2023-08-12T12:49:02.982Z,2.10
2023-08-12T12:51:31.245Z,2.15
2023-08-12T12:53:59.036Z,2.40
2023-08-12T12:56:26.690Z,1.90
2023-08-12T12:58:54.227Z,2.50
2023-08-12T13:01:22.491Z,2.80
2023-08-12T13:03:50.122Z,2.33
2023-08-12T13:06:17.834Z,2.27
2023-08-12T13:08:45.508Z,2.22
2023-08-12T13:11:13.036Z,2.15
2023-08-12T13:13:40.618Z,1.80
2023-08-12T13:16:09.549Z,1.73
2023-08-12T13:18:37.348Z,2.20
2023-08-12T13:21:04.904Z,2.10
2023-08-12T13:23:32.756Z,1.70
2023-08-12T13:26:00.896Z,2.00
2023-08-12T13:28:29.179Z,2.00
2023-08-12T13:30:57.259Z,2.00
2023-08-12T13:33:24.825Z,2.60
2023-08-12T13:35:52.485Z,2.13
2023-08-12T13:38:20.718Z,2.00
2023-08-12T13:40:49.866Z,35.92
2023-08-12T13:43:17.429Z,1.90
2023-08-12T13:45:45.511Z,1.95
2023-08-12T13:48:13.138Z,2.10
2023-08-12T13:50:41.090Z,2.00
2023-08-12T13:53:09.148Z,2.10
2023-08-12T13:55:36.811Z,1.83
2023-08-12T13:58:04.595Z,1.75
2023-08-12T14:00:32.342Z,2.17
2023-08-12T14:03:00.364Z,1.93
2023-08-12T14:05:28.496Z,1.80
2023-08-12T14:07:57.039Z,1.77
2023-08-12T14:10:25.189Z,1.60
2023-08-12T14:12:53.244Z,2.80
2023-08-12T14:15:21.063Z,1.80
2023-08-12T14:17:48.738Z,1.90
2023-08-12T14:20:16.629Z,1.80
2023-08-12T14:22:47.222Z,2.20
2023-08-12T14:25:14.808Z,2.10
2023-08-12T14:27:42.758Z,1.95
2023-08-12T14:30:11.103Z,2.05
2023-08-12T14:32:39.523Z,2.20
2023-08-12T14:35:07.719Z,2.00
2023-08-12T14:37:35.864Z,2.00
2023-08-12T14:40:04.166Z,1.95
2023-08-12T14:42:31.802Z,2.17
2023-08-12T14:44:59.609Z,552.63
2023-08-12T14:47:27.673Z,1.77
2023-08-12T14:49:56.120Z,2.05
2023-08-12T14:52:24.156Z,1.63
2023-08-12T14:54:52.185Z,1.80
2023-08-12T14:57:19.912Z,1.90
2023-08-12T14:59:51.671Z,2.50
2023-08-12T15:02:26.061Z,1.77
2023-08-12T15:04:54.616Z,1.73
2023-08-12T15:07:23.231Z,3.28
2023-08-12T15:09:52.426Z,1.67
2023-08-12T15:12:20.077Z,1.85
2023-08-12T15:14:48.226Z,1.90
2023-08-12T15:17:16.469Z,1.98
2023-08-12T15:19:44.926Z,1.90
2023-08-12T15:22:12.487Z,1.92
2023-08-12T15:24:40.184Z,1.77
2023-08-12T15:27:07.771Z,2.10
2023-08-12T15:29:35.427Z,1.98
2023-08-12T15:32:04.516Z,2.05
2023-08-12T15:34:32.954Z,1.80
2023-08-12T15:37:00.616Z,1.65
2023-08-12T15:39:28.778Z,2.03
2023-08-12T15:41:56.369Z,1.98
2023-08-12T15:44:24.420Z,1.83
2023-08-12T15:46:52.028Z,1.98
2023-08-12T15:49:20.140Z,1.95
2023-08-12T15:51:47.729Z,1.80
2023-08-12T15:54:15.273Z,2.03
2023-08-12T15:56:44.375Z,1.80
2023-08-12T15:59:11.987Z,2.28
2023-08-12T16:01:40.104Z,2.00
2023-08-12T16:04:08.154Z,2.10
2023-08-12T16:06:35.689Z,2.00
2023-08-12T16:09:16.872Z,2.13
2023-08-12T16:11:45.853Z,2.40
2023-08-12T16:14:13.833Z,2.00
2023-08-12T16:16:41.760Z,2.08
2023-08-12T16:19:09.398Z,1.90
2023-08-12T16:21:37.415Z,1.87
2023-08-12T16:24:05.219Z,2.47
2023-08-12T16:26:32.832Z,2.13
2023-08-12T16:29:01.293Z,2.22
2023-08-12T16:31:31.572Z,1.98
2023-08-12T16:33:59.272Z,2.20
2023-08-12T16:36:26.827Z,2.28
2023-08-12T16:38:54.468Z,2.55
2023-08-12T16:41:22.126Z,2.33
2023-08-12T16:43:49.790Z,2.40
2023-08-12T16:46:17.492Z,2.58
2023-08-12T16:48:45.521Z,2.35
2023-08-12T16:51:13.680Z,2.50
2023-08-12T16:53:41.467Z,2.45
2023-08-12T16:56:09.012Z,2.47
2023-08-12T16:58:36.733Z,2.33
2023-08-12T17:01:05.137Z,2.47
2023-08-12T17:03:32.804Z,2.55
2023-08-12T17:06:01.582Z,2.70
2023-08-12T17:08:30.522Z,2.13
2023-08-12T17:10:58.141Z,2.15
2023-08-12T17:13:25.698Z,2.80
2023-08-12T17:15:53.301Z,2.90
2023-08-12T17:18:21.329Z,2.75
2023-08-12T17:20:49.314Z,2.47
2023-08-12T17:23:16.939Z,5.15
2023-08-12T17:25:44.708Z,2.70
2023-08-12T17:28:12.549Z,2.65
2023-08-12T17:30:40.223Z,2.72
2023-08-12T17:33:07.846Z,2.83
2023-08-12T17:35:35.477Z,2.63
2023-08-12T17:38:03.183Z,2.60
2023-08-12T17:40:31.211Z,241.00
2023-08-12T17:42:58.817Z,2.40
2023-08-12T17:45:26.594Z,2.87
2023-08-12T17:47:59.979Z,2.55
2023-08-12T17:50:28.642Z,2.65
2023-08-12T17:52:57.183Z,220.02
2023-08-12T17:55:25.133Z,311.80
2023-08-12T17:57:53.484Z,190.70
2023-08-12T18:00:22.955Z,65.18
2023-08-12T18:02:50.563Z,7.03
2023-08-12T18:05:18.356Z,171.30
2023-08-12T18:07:47.439Z,213.45
2023-08-12T18:10:15.515Z,138.07
2023-08-12T18:12:43.136Z,92.23
2023-08-12T18:15:10.798Z,200.65
2023-08-12T18:17:38.963Z,112.15
2023-08-12T18:20:07.255Z,5.72
2023-08-12T18:22:34.754Z,4.60
2023-08-12T18:25:02.345Z,104.60
2023-08-12T18:27:30.620Z,40.47
2023-08-12T18:29:58.216Z,7.07
2023-08-12T18:32:28.418Z,3.78
2023-08-12T18:34:57.268Z,3.37
2023-08-12T18:37:24.838Z,107.10
2023-08-12T18:39:52.630Z,2.90
2023-08-12T18:42:20.363Z,3.25
2023-08-12T18:44:48.438Z,3.97
2023-08-12T18:47:17.792Z,3.33
2023-08-12T18:49:45.601Z,113.35
2023-08-12T18:52:14.871Z,84.57
2023-08-12T18:54:43.065Z,144.80
2023-08-12T18:57:10.701Z,122.80
2023-08-12T18:59:38.805Z,87.78
2023-08-12T19:02:07.128Z,197.57
2023-08-12T19:04:35.292Z,56.05
2023-08-12T19:07:03.041Z,170.45
2023-08-12T19:09:31.224Z,260.42
2023-08-12T19:11:58.796Z,376.92
2023-08-12T19:14:26.433Z,469.92
2023-08-12T19:16:55.129Z,614.47
2023-08-12T19:19:23.175Z,717.38
2023-08-12T19:21:50.746Z,631.28
2023-08-12T19:24:18.810Z,744.90
2023-08-12T19:26:46.380Z,772.90
2023-08-12T19:29:14.457Z,833.03
2023-08-12T19:31:42.143Z,945.47
2023-08-12T19:34:10.283Z,929.45
2023-08-12T19:36:37.905Z,805.40
2023-08-12T19:39:06.207Z,924.85
2023-08-12T19:41:33.854Z,938.75
2023-08-12T19:44:01.414Z,893.67
2023-08-12T19:46:29.901Z,899.03
2023-08-12T19:48:59.314Z,897.80
2023-08-12T19:51:26.934Z,933.17
2023-08-12T19:53:54.646Z,940.85
2023-08-12T19:56:22.555Z,981.10
2023-08-12T19:58:50.649Z,895.20
2023-08-12T20:01:18.272Z,854.03
2023-08-12T20:03:45.955Z,856.03
2023-08-12T20:06:13.583Z,906.10
2023-08-12T20:08:41.595Z,875.97
2023-08-12T20:11:09.262Z,822.43
2023-08-12T20:13:37.999Z,812.70
2023-08-12T20:16:05.617Z,846.17
2023-08-12T20:18:33.207Z,895.57
2023-08-12T20:21:01.033Z,827.45
2023-08-12T20:23:29.044Z,770.85
2023-08-12T20:25:57.037Z,846.00
2023-08-12T20:28:25.465Z,901.78
2023-08-12T20:30:53.499Z,886.72
2023-08-12T20:33:21.228Z,794.63
2023-08-12T20:35:49.009Z,831.10
2023-08-12T20:38:19.373Z,821.88
2023-08-12T20:40:47.076Z,850.67
2023-08-12T20:43:15.123Z,842.83
2023-08-12T20:45:43.138Z,850.13
2023-08-12T20:48:11.125Z,857.53
2023-08-12T20:50:38.684Z,806.97
2023-08-12T20:53:06.303Z,930.78
2023-08-12T20:55:33.949Z,985.50
2023-08-12T20:58:01.920Z,998.42
2023-08-12T21:00:30.243Z,999.90
2023-08-12T21:02:58.317Z,999.90
2023-08-12T21:05:26.386Z,932.10
2023-08-12T21:07:53.978Z,999.90
2023-08-12T21:10:21.823Z,999.90
2023-08-12T21:12:49.430Z,999.90
2023-08-12T21:15:16.978Z,908.05
2023-08-12T21:17:44.561Z,814.22
2023-08-12T21:20:12.535Z,874.42
2023-08-12T21:22:40.305Z,851.53
2023-08-12T21:25:08.220Z,805.97
2023-08-12T21:27:36.250Z,879.65
2023-08-12T21:30:04.528Z,865.15
2023-08-12T21:32:32.433Z,999.90
2023-08-12T21:35:00.599Z,989.23
2023-08-12T21:37:28.583Z,921.55
2023-08-12T21:39:56.525Z,860.83
2023-08-12T21:42:24.177Z,903.10
2023-08-12T21:44:52.215Z,852.13
2023-08-12T21:47:19.777Z,847.17
2023-08-12T21:49:47.828Z,837.53
2023-08-12T21:52:15.836Z,901.47
2023-08-12T21:54:44.476Z,853.53
2023-08-12T21:57:12.146Z,852.80
2023-08-12T21:59:40.249Z,854.97
2023-08-12T22:02:08.763Z,740.08
2023-08-12T22:04:36.277Z,841.80
2023-08-12T22:07:05.633Z,855.65
2023-08-12T22:09:35.414Z,847.50
2023-08-12T22:12:03.093Z,851.23
2023-08-12T22:14:31.281Z,897.03
2023-08-12T22:16:59.371Z,805.22
2023-08-12T22:19:29.725Z,833.90
2023-08-12T22:22:05.401Z,878.88
2023-08-12T22:24:41.149Z,841.83
2023-08-12T22:27:09.238Z,902.13
2023-08-12T22:29:37.279Z,833.30
2023-08-12T22:32:05.070Z,840.17
2023-08-12T22:34:32.665Z,803.38
2023-08-12T22:37:00.327Z,822.63
2023-08-12T22:39:27.941Z,827.55
2023-08-12T22:41:56.383Z,798.40
2023-08-12T22:44:23.942Z,807.80
2023-08-12T22:46:51.577Z,834.40
2023-08-12T22:49:20.089Z,821.25
2023-08-12T22:51:47.687Z,645.45
2023-08-12T22:54:16.286Z,680.53
2023-08-12T22:56:43.830Z,667.33
2023-08-12T22:59:11.593Z,670.85
2023-08-12T23:01:39.158Z,668.90
2023-08-12T23:04:07.677Z,625.47
2023-08-12T23:06:35.272Z,645.05
2023-08-12T23:09:02.984Z,667.80
2023-08-12T23:11:31.001Z,716.65
2023-08-12T23:13:58.555Z,724.92
2023-08-12T23:16:26.648Z,745.63
2023-08-12T23:18:54.275Z,703.42
2023-08-12T23:21:21.870Z,716.78
2023-08-12T23:23:49.598Z,707.22
2023-08-12T23:26:18.297Z,761.90
2023-08-12T23:28:45.937Z,706.28
2023-08-12T23:31:13.483Z,682.67
2023-08-12T23:33:41.153Z,723.97
2023-08-12T23:36:09.723Z,689.15
2023-08-12T23:38:38.282Z,685.63
2023-08-12T23:41:05.811Z,689.57
2023-08-12T23:43:33.656Z,691.00
2023-08-12T23:46:01.544Z,687.47
2023-08-12T23:48:29.190Z,720.17
2023-08-12T23:50:57.030Z,736.90
2023-08-12T23:53:25.411Z,658.28
2023-08-12T23:55:53.097Z,644.50
2023-08-12T23:58:20.775Z,766.45
